sensor_id;sensor_type;location;lat;lon;timestamp;temperature;humidity
69503;SHT31;56704;54.242;12.442;2024-02-21T00:00:39;7.33;91.15
69503;SHT31;56704;54.242;12.442;2024-02-21T00:03:07;7.34;91.43
69503;SHT31;56704;54.242;12.442;2024-02-21T00:05:35;7.30;91.49
69503;SHT31;56704;54.242;12.442;2024-02-21T00:08:03;7.36;91.80
69503;SHT31;56704;54.242;12.442;2024-02-21T00:10:31;7.30;91.84
69503;SHT31;56704;54.242;12.442;2024-02-21T00:12:58;7.28;92.01
69503;SHT31;56704;54.242;12.442;2024-02-21T00:15:25;7.30;92.15
69503;SHT31;56704;54.242;12.442;2024-02-21T00:17:52;7.28;92.12
69503;SHT31;56704;54.242;12.442;2024-02-21T00:20:19;7.27;92.19
69503;SHT31;56704;54.242;12.442;2024-02-21T00:22:47;7.26;92.34
69503;SHT31;56704;54.242;12.442;2024-02-21T00:25:13;7.26;92.54
69503;SHT31;56704;54.242;12.442;2024-02-21T00:27:40;7.30;92.64
69503;SHT31;56704;54.242;12.442;2024-02-21T00:30:07;7.27;92.65
69503;SHT31;56704;54.242;12.442;2024-02-21T00:32:34;7.27;92.75
69503;SHT31;56704;54.242;12.442;2024-02-21T00:35:01;7.27;92.75
69503;SHT31;56704;54.242;12.442;2024-02-21T00:37:27;7.27;92.86
69503;SHT31;56704;54.242;12.442;2024-02-21T00:39:55;7.28;92.91
69503;SHT31;56704;54.242;12.442;2024-02-21T00:42:22;7.27;93.02
69503;SHT31;56704;54.242;12.442;2024-02-21T00:44:48;7.33;92.99
69503;SHT31;56704;54.242;12.442;2024-02-21T00:47:15;7.31;93.03
69503;SHT31;56704;54.242;12.442;2024-02-21T00:49:42;7.36;93.02
69503;SHT31;56704;54.242;12.442;2024-02-21T00:52:08;7.37;93.02
69503;SHT31;56704;54.242;12.442;2024-02-21T00:54:35;7.38;93.00
69503;SHT31;56704;54.242;12.442;2024-02-21T00:57:03;7.40;92.83
69503;SHT31;56704;54.242;12.442;2024-02-21T00:59:29;7.42;92.97
69503;SHT31;56704;54.242;12.442;2024-02-21T01:01:57;7.43;93.00
69503;SHT31;56704;54.242;12.442;2024-02-21T01:04:24;7.47;92.86
69503;SHT31;56704;54.242;12.442;2024-02-21T01:06:51;7.50;92.66
69503;SHT31;56704;54.242;12.442;2024-02-21T01:09:17;7.50;92.67
69503;SHT31;56704;54.242;12.442;2024-02-21T01:11:44;7.51;92.52
69503;SHT31;56704;54.242;12.442;2024-02-21T01:14:12;7.54;92.61
69503;SHT31;56704;54.242;12.442;2024-02-21T01:16:39;7.48;92.52
69503;SHT31;56704;54.242;12.442;2024-02-21T01:19:05;7.53;92.66
69503;SHT31;56704;54.242;12.442;2024-02-21T01:21:32;7.53;92.65
69503;SHT31;56704;54.242;12.442;2024-02-21T01:23:58;7.48;92.83
69503;SHT31;56704;54.242;12.442;2024-02-21T01:26:25;7.53;92.97
69503;SHT31;56704;54.242;12.442;2024-02-21T01:28:51;7.56;92.96
69503;SHT31;56704;54.242;12.442;2024-02-21T01:31:19;7.57;92.91
69503;SHT31;56704;54.242;12.442;2024-02-21T01:33:48;7.57;92.92
69503;SHT31;56704;54.242;12.442;2024-02-21T01:36:14;7.56;92.73
69503;SHT31;56704;54.242;12.442;2024-02-21T01:38:41;7.60;92.84
69503;SHT31;56704;54.242;12.442;2024-02-21T01:41:08;7.60;92.88
69503;SHT31;56704;54.242;12.442;2024-02-21T01:43:34;7.61;92.88
69503;SHT31;56704;54.242;12.442;2024-02-21T01:46:01;7.65;92.73
69503;SHT31;56704;54.242;12.442;2024-02-21T01:48:29;7.70;92.45
69503;SHT31;56704;54.242;12.442;2024-02-21T01:50:56;7.70;92.34
69503;SHT31;56704;54.242;12.442;2024-02-21T01:53:27;7.68;92.42
69503;SHT31;56704;54.242;12.442;2024-02-21T01:55:55;7.73;92.35
69503;SHT31;56704;54.242;12.442;2024-02-21T01:58:22;7.73;92.37
69503;SHT31;56704;54.242;12.442;2024-02-21T02:00:50;7.74;92.19
69503;SHT31;56704;54.242;12.442;2024-02-21T02:03:17;7.78;92.20
69503;SHT31;56704;54.242;12.442;2024-02-21T02:05:45;7.75;92.23
69503;SHT31;56704;54.242;12.442;2024-02-21T02:08:12;7.79;92.06
69503;SHT31;56704;54.242;12.442;2024-02-21T02:10:40;7.84;92.07
69503;SHT31;56704;54.242;12.442;2024-02-21T02:13:07;7.75;91.96
69503;SHT31;56704;54.242;12.442;2024-02-21T02:15:40;7.82;92.03
69503;SHT31;56704;54.242;12.442;2024-02-21T02:18:07;7.82;91.84
69503;SHT31;56704;54.242;12.442;2024-02-21T02:20:34;7.82;91.81
69503;SHT31;56704;54.242;12.442;2024-02-21T02:23:06;7.87;91.86
69503;SHT31;56704;54.242;12.442;2024-02-21T02:25:35;7.88;91.78
69503;SHT31;56704;54.242;12.442;2024-02-21T02:28:02;7.88;91.73
69503;SHT31;56704;54.242;12.442;2024-02-21T02:30:28;7.91;91.59
69503;SHT31;56704;54.242;12.442;2024-02-21T02:32:58;7.88;91.69
69503;SHT31;56704;54.242;12.442;2024-02-21T02:35:24;7.91;91.53
69503;SHT31;56704;54.242;12.442;2024-02-21T02:37:51;7.94;91.56
69503;SHT31;56704;54.242;12.442;2024-02-21T02:40:17;7.95;91.53
69503;SHT31;56704;54.242;12.442;2024-02-21T02:42:46;7.97;91.59
69503;SHT31;56704;54.242;12.442;2024-02-21T02:45:14;8.01;91.12
69503;SHT31;56704;54.242;12.442;2024-02-21T02:47:40;8.01;91.23
69503;SHT31;56704;54.242;12.442;2024-02-21T02:50:08;8.03;91.38
69503;SHT31;56704;54.242;12.442;2024-02-21T02:52:34;8.02;91.54
69503;SHT31;56704;54.242;12.442;2024-02-21T02:55:01;7.98;91.56
69503;SHT31;56704;54.242;12.442;2024-02-21T02:57:28;7.98;91.67
69503;SHT31;56704;54.242;12.442;2024-02-21T02:59:56;7.97;91.77
69503;SHT31;56704;54.242;12.442;2024-02-21T03:02:22;8.01;91.99
69503;SHT31;56704;54.242;12.442;2024-02-21T03:04:49;7.98;92.08
69503;SHT31;56704;54.242;12.442;2024-02-21T03:07:16;7.98;92.25
69503;SHT31;56704;54.242;12.442;2024-02-21T03:09:43;7.97;92.25
69503;SHT31;56704;54.242;12.442;2024-02-21T03:12:09;7.99;92.40
69503;SHT31;56704;54.242;12.442;2024-02-21T03:14:36;7.94;92.39
69503;SHT31;56704;54.242;12.442;2024-02-21T03:17:04;7.95;92.51
69503;SHT31;56704;54.242;12.442;2024-02-21T03:19:31;7.88;92.57
69503;SHT31;56704;54.242;12.442;2024-02-21T03:21:58;7.92;92.70
69503;SHT31;56704;54.242;12.442;2024-02-21T03:24:24;7.92;92.72
69503;SHT31;56704;54.242;12.442;2024-02-21T03:26:51;7.95;92.79
69503;SHT31;56704;54.242;12.442;2024-02-21T03:29:17;7.94;92.86
69503;SHT31;56704;54.242;12.442;2024-02-21T03:31:44;7.97;92.82
69503;SHT31;56704;54.242;12.442;2024-02-21T03:34:12;7.95;92.71
69503;SHT31;56704;54.242;12.442;2024-02-21T03:36:39;7.99;92.66
69503;SHT31;56704;54.242;12.442;2024-02-21T03:39:05;7.99;92.81
69503;SHT31;56704;54.242;12.442;2024-02-21T03:41:33;7.98;92.64
69503;SHT31;56704;54.242;12.442;2024-02-21T03:43:59;8.02;92.36
69503;SHT31;56704;54.242;12.442;2024-02-21T03:46:27;8.06;92.28
69503;SHT31;56704;54.242;12.442;2024-02-21T03:48:53;8.09;92.13
69503;SHT31;56704;54.242;12.442;2024-02-21T03:51:21;8.09;92.06
69503;SHT31;56704;54.242;12.442;2024-02-21T03:53:48;8.15;91.94
69503;SHT31;56704;54.242;12.442;2024-02-21T03:56:14;8.13;91.78
69503;SHT31;56704;54.242;12.442;2024-02-21T03:58:41;8.16;91.84
69503;SHT31;56704;54.242;12.442;2024-02-21T04:01:07;8.18;91.83
69503;SHT31;56704;54.242;12.442;2024-02-21T04:03:34;8.18;91.91
69503;SHT31;56704;54.242;12.442;2024-02-21T04:06:01;8.22;91.89
69503;SHT31;56704;54.242;12.442;2024-02-21T04:08:29;8.18;91.65
69503;SHT31;56704;54.242;12.442;2024-02-21T04:10:55;8.21;91.61
69503;SHT31;56704;54.242;12.442;2024-02-21T04:13:22;8.25;91.42
69503;SHT31;56704;54.242;12.442;2024-02-21T04:15:48;8.25;91.24
69503;SHT31;56704;54.242;12.442;2024-02-21T04:18:15;8.28;91.27
69503;SHT31;56704;54.242;12.442;2024-02-21T04:20:42;8.29;91.19
69503;SHT31;56704;54.242;12.442;2024-02-21T04:23:08;8.29;91.20
69503;SHT31;56704;54.242;12.442;2024-02-21T04:25:37;8.32;91.04
69503;SHT31;56704;54.242;12.442;2024-02-21T04:28:04;8.26;91.12
69503;SHT31;56704;54.242;12.442;2024-02-21T04:30:30;8.26;91.26
69503;SHT31;56704;54.242;12.442;2024-02-21T04:32:57;8.25;91.42
69503;SHT31;56704;54.242;12.442;2024-02-21T04:35:24;8.19;91.57
69503;SHT31;56704;54.242;12.442;2024-02-21T04:37:50;8.19;91.70
69503;SHT31;56704;54.242;12.442;2024-02-21T04:40:17;8.19;91.88
69503;SHT31;56704;54.242;12.442;2024-02-21T04:42:45;8.21;91.90
69503;SHT31;56704;54.242;12.442;2024-02-21T04:45:11;8.16;91.93
69503;SHT31;56704;54.242;12.442;2024-02-21T04:47:38;8.22;91.89
69503;SHT31;56704;54.242;12.442;2024-02-21T04:50:05;8.25;91.74
69503;SHT31;56704;54.242;12.442;2024-02-21T04:52:32;8.22;91.82
69503;SHT31;56704;54.242;12.442;2024-02-21T04:54:58;8.28;91.79
69503;SHT31;56704;54.242;12.442;2024-02-21T04:57:25;8.28;91.81
69503;SHT31;56704;54.242;12.442;2024-02-21T04:59:53;8.28;91.86
69503;SHT31;56704;54.242;12.442;2024-02-21T05:02:19;8.26;92.05
69503;SHT31;56704;54.242;12.442;2024-02-21T05:04:49;8.25;92.40
69503;SHT31;56704;54.242;12.442;2024-02-21T05:07:16;8.25;92.61
69503;SHT31;56704;54.242;12.442;2024-02-21T05:09:44;8.24;92.83
69503;SHT31;56704;54.242;12.442;2024-02-21T05:12:11;8.19;93.14
69503;SHT31;56704;54.242;12.442;2024-02-21T05:14:37;8.21;93.29
69503;SHT31;56704;54.242;12.442;2024-02-21T05:17:05;8.18;93.62
69503;SHT31;56704;54.242;12.442;2024-02-21T05:19:32;8.16;93.73
69503;SHT31;56704;54.242;12.442;2024-02-21T05:21:59;8.16;93.87
69503;SHT31;56704;54.242;12.442;2024-02-21T05:24:26;8.21;94.03
69503;SHT31;56704;54.242;12.442;2024-02-21T05:26:53;8.18;94.09
69503;SHT31;56704;54.242;12.442;2024-02-21T05:29:20;8.18;94.21
69503;SHT31;56704;54.242;12.442;2024-02-21T05:31:56;8.19;94.27
69503;SHT31;56704;54.242;12.442;2024-02-21T05:34:25;8.18;94.33
69503;SHT31;56704;54.242;12.442;2024-02-21T05:36:52;8.21;94.38
69503;SHT31;56704;54.242;12.442;2024-02-21T05:39:19;8.21;94.46
69503;SHT31;56704;54.242;12.442;2024-02-21T05:41:48;8.21;94.53
69503;SHT31;56704;54.242;12.442;2024-02-21T05:44:15;8.24;94.58
69503;SHT31;56704;54.242;12.442;2024-02-21T05:46:41;8.22;94.60
69503;SHT31;56704;54.242;12.442;2024-02-21T05:49:08;8.22;94.69
69503;SHT31;56704;54.242;12.442;2024-02-21T05:51:36;8.26;94.72
69503;SHT31;56704;54.242;12.442;2024-02-21T05:54:02;8.22;94.66
69503;SHT31;56704;54.242;12.442;2024-02-21T05:56:29;8.12;94.18
69503;SHT31;56704;54.242;12.442;2024-02-21T05:58:56;7.99;94.15
69503;SHT31;56704;54.242;12.442;2024-02-21T06:01:22;7.92;93.92
69503;SHT31;56704;54.242;12.442;2024-02-21T06:03:49;7.88;93.42
69503;SHT31;56704;54.242;12.442;2024-02-21T06:06:16;7.82;93.69
69503;SHT31;56704;54.242;12.442;2024-02-21T06:11:18;7.73;93.94
69503;SHT31;56704;54.242;12.442;2024-02-21T06:13:44;7.71;93.84
69503;SHT31;56704;54.242;12.442;2024-02-21T06:16:11;7.65;93.99
69503;SHT31;56704;54.242;12.442;2024-02-21T06:18:38;7.64;93.94
69503;SHT31;56704;54.242;12.442;2024-02-21T06:21:05;7.63;94.06
69503;SHT31;56704;54.242;12.442;2024-02-21T06:23:31;7.63;94.11
69503;SHT31;56704;54.242;12.442;2024-02-21T06:25:58;7.61;94.08
69503;SHT31;56704;54.242;12.442;2024-02-21T06:28:26;7.60;94.03
69503;SHT31;56704;54.242;12.442;2024-02-21T06:30:52;7.56;94.07
69503;SHT31;56704;54.242;12.442;2024-02-21T06:33:19;7.54;94.06
69503;SHT31;56704;54.242;12.442;2024-02-21T06:35:50;7.47;93.94
69503;SHT31;56704;54.242;12.442;2024-02-21T06:38:18;7.46;93.62
69503;SHT31;56704;54.242;12.442;2024-02-21T06:40:44;7.46;93.65
69503;SHT31;56704;54.242;12.442;2024-02-21T06:43:16;7.46;93.76
69503;SHT31;56704;54.242;12.442;2024-02-21T06:45:44;7.44;93.87
69503;SHT31;56704;54.242;12.442;2024-02-21T06:48:13;7.46;93.78
69503;SHT31;56704;54.242;12.442;2024-02-21T06:50:39;7.43;93.31
69503;SHT31;56704;54.242;12.442;2024-02-21T06:53:06;7.46;93.05
69503;SHT31;56704;54.242;12.442;2024-02-21T06:55:32;7.46;92.71
69503;SHT31;56704;54.242;12.442;2024-02-21T06:57:59;7.50;92.12
69503;SHT31;56704;54.242;12.442;2024-02-21T07:00:27;7.47;92.23
69503;SHT31;56704;54.242;12.442;2024-02-21T07:02:55;7.46;91.58
69503;SHT31;56704;54.242;12.442;2024-02-21T07:05:21;7.46;91.54
69503;SHT31;56704;54.242;12.442;2024-02-21T07:07:48;7.38;91.58
69503;SHT31;56704;54.242;12.442;2024-02-21T07:10:14;7.33;91.39
69503;SHT31;56704;54.242;12.442;2024-02-21T07:12:41;7.27;91.29
69503;SHT31;56704;54.242;12.442;2024-02-21T07:15:08;7.22;91.33
69503;SHT31;56704;54.242;12.442;2024-02-21T07:17:35;7.22;91.26
69503;SHT31;56704;54.242;12.442;2024-02-21T07:20:04;7.31;91.26
69503;SHT31;56704;54.242;12.442;2024-02-21T07:22:30;7.43;91.14
69503;SHT31;56704;54.242;12.442;2024-02-21T07:24:57;7.47;91.18
69503;SHT31;56704;54.242;12.442;2024-02-21T07:27:23;7.46;90.71
69503;SHT31;56704;54.242;12.442;2024-02-21T07:29:53;7.53;90.95
69503;SHT31;56704;54.242;12.442;2024-02-21T07:32:20;7.56;90.79
69503;SHT31;56704;54.242;12.442;2024-02-21T07:34:46;7.70;90.80
69503;SHT31;56704;54.242;12.442;2024-02-21T07:37:14;7.81;91.02
69503;SHT31;56704;54.242;12.442;2024-02-21T07:39:41;7.82;91.04
69503;SHT31;56704;54.242;12.442;2024-02-21T07:42:07;7.78;90.56
69503;SHT31;56704;54.242;12.442;2024-02-21T07:44:34;7.81;90.02
69503;SHT31;56704;54.242;12.442;2024-02-21T07:47:01;7.77;89.11
69503;SHT31;56704;54.242;12.442;2024-02-21T07:49:27;7.77;88.94
69503;SHT31;56704;54.242;12.442;2024-02-21T07:51:54;7.77;89.22
69503;SHT31;56704;54.242;12.442;2024-02-21T07:54:22;7.77;89.92
69503;SHT31;56704;54.242;12.442;2024-02-21T07:56:48;7.70;89.64
69503;SHT31;56704;54.242;12.442;2024-02-21T07:59:15;7.77;89.80
69503;SHT31;56704;54.242;12.442;2024-02-21T08:01:42;7.94;89.70
69503;SHT31;56704;54.242;12.442;2024-02-21T08:04:10;7.94;89.49
69503;SHT31;56704;54.242;12.442;2024-02-21T08:06:36;8.05;89.52
69503;SHT31;56704;54.242;12.442;2024-02-21T08:09:03;8.24;89.52
69503;SHT31;56704;54.242;12.442;2024-02-21T08:11:31;8.36;88.99
69503;SHT31;56704;54.242;12.442;2024-02-21T08:13:57;8.39;88.97
69503;SHT31;56704;54.242;12.442;2024-02-21T08:16:24;8.39;89.12
69503;SHT31;56704;54.242;12.442;2024-02-21T08:18:51;8.43;88.32
69503;SHT31;56704;54.242;12.442;2024-02-21T08:21:17;8.61;88.63
69503;SHT31;56704;54.242;12.442;2024-02-21T08:23:44;8.69;88.28
69503;SHT31;56704;54.242;12.442;2024-02-21T08:26:10;8.77;88.04
69503;SHT31;56704;54.242;12.442;2024-02-21T08:28:38;8.88;88.05
69503;SHT31;56704;54.242;12.442;2024-02-21T08:31:05;8.96;87.72
69503;SHT31;56704;54.242;12.442;2024-02-21T08:33:31;8.99;86.87
69503;SHT31;56704;54.242;12.442;2024-02-21T08:35:58;9.11;86.74
69503;SHT31;56704;54.242;12.442;2024-02-21T08:38:24;9.07;86.12
69503;SHT31;56704;54.242;12.442;2024-02-21T08:40:51;9.14;85.90
69503;SHT31;56704;54.242;12.442;2024-02-21T08:43:17;9.18;84.98
69503;SHT31;56704;54.242;12.442;2024-02-21T08:45:45;9.28;84.57
69503;SHT31;56704;54.242;12.442;2024-02-21T08:48:12;9.31;84.55
69503;SHT31;56704;54.242;12.442;2024-02-21T08:50:39;9.41;84.14
69503;SHT31;56704;54.242;12.442;2024-02-21T08:53:05;9.34;83.44
69503;SHT31;56704;54.242;12.442;2024-02-21T08:55:32;9.43;84.04
69503;SHT31;56704;54.242;12.442;2024-02-21T08:58:00;9.52;84.19
69503;SHT31;56704;54.242;12.442;2024-02-21T09:00:27;9.49;84.59
69503;SHT31;56704;54.242;12.442;2024-02-21T09:02:55;9.31;83.32
69503;SHT31;56704;54.242;12.442;2024-02-21T09:05:22;9.27;84.18
69503;SHT31;56704;54.242;12.442;2024-02-21T09:07:50;9.25;84.55
69503;SHT31;56704;54.242;12.442;2024-02-21T09:10:16;9.14;84.34
69503;SHT31;56704;54.242;12.442;2024-02-21T09:12:43;9.11;84.79
69503;SHT31;56704;54.242;12.442;2024-02-21T09:15:10;9.04;84.22
69503;SHT31;56704;54.242;12.442;2024-02-21T09:17:36;8.99;84.48
69503;SHT31;56704;54.242;12.442;2024-02-21T09:20:07;9.00;84.46
69503;SHT31;56704;54.242;12.442;2024-02-21T09:22:36;9.01;84.94
69503;SHT31;56704;54.242;12.442;2024-02-21T09:25:05;9.01;85.10
69503;SHT31;56704;54.242;12.442;2024-02-21T09:27:32;8.97;84.44
69503;SHT31;56704;54.242;12.442;2024-02-21T09:29:59;9.04;83.86
69503;SHT31;56704;54.242;12.442;2024-02-21T09:32:26;9.18;83.36
69503;SHT31;56704;54.242;12.442;2024-02-21T09:34:52;9.15;83.48
69503;SHT31;56704;54.242;12.442;2024-02-21T09:37:21;9.08;83.21
69503;SHT31;56704;54.242;12.442;2024-02-21T09:39:47;9.20;83.60
69503;SHT31;56704;54.242;12.442;2024-02-21T09:42:19;9.18;82.59
69503;SHT31;56704;54.242;12.442;2024-02-21T09:44:46;9.22;83.09
69503;SHT31;56704;54.242;12.442;2024-02-21T09:47:19;9.27;83.46
69503;SHT31;56704;54.242;12.442;2024-02-21T09:49:45;9.31;82.25
69503;SHT31;56704;54.242;12.442;2024-02-21T09:52:15;9.30;83.18
69503;SHT31;56704;54.242;12.442;2024-02-21T09:54:43;9.28;83.87
69503;SHT31;56704;54.242;12.442;2024-02-21T09:57:10;9.55;83.99
69503;SHT31;56704;54.242;12.442;2024-02-21T09:59:39;9.48;82.63
69503;SHT31;56704;54.242;12.442;2024-02-21T10:02:07;9.55;82.36
69503;SHT31;56704;54.242;12.442;2024-02-21T10:04:33;9.83;81.21
69503;SHT31;56704;54.242;12.442;2024-02-21T10:07:00;10.07;81.66
69503;SHT31;56704;54.242;12.442;2024-02-21T10:09:28;10.13;79.84
69503;SHT31;56704;54.242;12.442;2024-02-21T10:12:06;10.14;79.44
69503;SHT31;56704;54.242;12.442;2024-02-21T10:14:33;10.16;80.14
69503;SHT31;56704;54.242;12.442;2024-02-21T10:17:00;10.40;80.57
69503;SHT31;56704;54.242;12.442;2024-02-21T10:19:28;10.41;80.54
69503;SHT31;56704;54.242;12.442;2024-02-21T10:24:27;10.37;78.54
69503;SHT31;56704;54.242;12.442;2024-02-21T10:27:01;10.60;80.52
69503;SHT31;56704;54.242;12.442;2024-02-21T10:29:29;10.44;80.57
69503;SHT31;56704;54.242;12.442;2024-02-21T10:32:04;10.04;79.78
69503;SHT31;56704;54.242;12.442;2024-02-21T10:34:31;10.04;80.36
69503;SHT31;56704;54.242;12.442;2024-02-21T10:37:00;9.94;80.36
69503;SHT31;56704;54.242;12.442;2024-02-21T10:39:27;10.10;81.66
69503;SHT31;56704;54.242;12.442;2024-02-21T10:41:54;10.36;81.30
69503;SHT31;56704;54.242;12.442;2024-02-21T10:44:24;10.65;80.29
69503;SHT31;56704;54.242;12.442;2024-02-21T10:46:52;10.58;78.73
69503;SHT31;56704;54.242;12.442;2024-02-21T10:49:22;10.85;77.20
69503;SHT31;56704;54.242;12.442;2024-02-21T10:51:54;10.78;76.77
69503;SHT31;56704;54.242;12.442;2024-02-21T10:54:30;10.92;75.41
69503;SHT31;56704;54.242;12.442;2024-02-21T10:57:01;11.08;73.92
69503;SHT31;56704;54.242;12.442;2024-02-21T10:59:30;11.12;73.67
69503;SHT31;56704;54.242;12.442;2024-02-21T11:01:58;11.08;71.03
69503;SHT31;56704;54.242;12.442;2024-02-21T11:04:25;11.14;69.89
69503;SHT31;56704;54.242;12.442;2024-02-21T11:06:52;11.02;69.16
69503;SHT31;56704;54.242;12.442;2024-02-21T11:09:29;11.14;71.64
69503;SHT31;56704;54.242;12.442;2024-02-21T11:11:56;11.52;70.25
69503;SHT31;56704;54.242;12.442;2024-02-21T11:14:26;11.71;68.33
69503;SHT31;56704;54.242;12.442;2024-02-21T11:16:54;11.55;67.17
69503;SHT31;56704;54.242;12.442;2024-02-21T11:19:24;11.79;65.29
69503;SHT31;56704;54.242;12.442;2024-02-21T11:21:52;11.74;67.49
69503;SHT31;56704;54.242;12.442;2024-02-21T11:24:26;11.59;66.43
69503;SHT31;56704;54.242;12.442;2024-02-21T11:26:54;12.02;67.52
69503;SHT31;56704;54.242;12.442;2024-02-21T11:29:23;11.88;63.20
69503;SHT31;56704;54.242;12.442;2024-02-21T11:31:50;12.05;64.69
69503;SHT31;56704;54.242;12.442;2024-02-21T11:34:19;12.07;65.81
69503;SHT31;56704;54.242;12.442;2024-02-21T11:36:49;12.27;66.60
69503;SHT31;56704;54.242;12.442;2024-02-21T11:39:20;12.10;64.51
69503;SHT31;56704;54.242;12.442;2024-02-21T11:41:47;12.08;66.07
69503;SHT31;56704;54.242;12.442;2024-02-21T11:44:14;12.08;66.09
69503;SHT31;56704;54.242;12.442;2024-02-21T11:46:40;12.18;66.92
69503;SHT31;56704;54.242;12.442;2024-02-21T11:49:07;12.25;65.96
69503;SHT31;56704;54.242;12.442;2024-02-21T11:51:35;12.37;66.37
69503;SHT31;56704;54.242;12.442;2024-02-21T11:54:02;12.73;67.98
69503;SHT31;56704;54.242;12.442;2024-02-21T11:56:30;13.09;66.34
69503;SHT31;56704;54.242;12.442;2024-02-21T11:58:58;13.04;66.48
69503;SHT31;56704;54.242;12.442;2024-02-21T12:01:25;13.17;66.24
69503;SHT31;56704;54.242;12.442;2024-02-21T12:03:52;12.53;65.17
69503;SHT31;56704;54.242;12.442;2024-02-21T12:06:18;12.45;64.79
69503;SHT31;56704;54.242;12.442;2024-02-21T12:08:48;12.69;66.11
69503;SHT31;56704;54.242;12.442;2024-02-21T12:11:19;12.90;65.21
69503;SHT31;56704;54.242;12.442;2024-02-21T12:13:46;12.81;63.31
69503;SHT31;56704;54.242;12.442;2024-02-21T12:16:15;13.03;66.15
69503;SHT31;56704;54.242;12.442;2024-02-21T12:18:41;12.65;63.31
69503;SHT31;56704;54.242;12.442;2024-02-21T12:21:09;12.96;64.59
69503;SHT31;56704;54.242;12.442;2024-02-21T12:23:37;13.04;66.73
69503;SHT31;56704;54.242;12.442;2024-02-21T12:26:05;13.26;67.47
69503;SHT31;56704;54.242;12.442;2024-02-21T12:28:33;13.81;67.85
69503;SHT31;56704;54.242;12.442;2024-02-21T12:30:59;13.65;62.36
69503;SHT31;56704;54.242;12.442;2024-02-21T12:33:26;13.92;65.37
69503;SHT31;56704;54.242;12.442;2024-02-21T12:35:53;14.30;63.92
69503;SHT31;56704;54.242;12.442;2024-02-21T12:38:20;13.92;60.70
69503;SHT31;56704;54.242;12.442;2024-02-21T12:40:46;13.82;61.31
69503;SHT31;56704;54.242;12.442;2024-02-21T12:43:14;13.70;60.13
69503;SHT31;56704;54.242;12.442;2024-02-21T12:45:41;13.48;58.66
69503;SHT31;56704;54.242;12.442;2024-02-21T12:48:08;13.64;62.89
69503;SHT31;56704;54.242;12.442;2024-02-21T12:50:34;14.14;65.64
69503;SHT31;56704;54.242;12.442;2024-02-21T12:53:01;14.30;60.62
69503;SHT31;56704;54.242;12.442;2024-02-21T12:55:28;14.02;57.17
69503;SHT31;56704;54.242;12.442;2024-02-21T12:57:54;14.40;57.58
69503;SHT31;56704;54.242;12.442;2024-02-21T13:00:23;15.04;57.24
69503;SHT31;56704;54.242;12.442;2024-02-21T13:02:53;15.82;60.65
69503;SHT31;56704;54.242;12.442;2024-02-21T13:05:19;16.27;54.76
69503;SHT31;56704;54.242;12.442;2024-02-21T13:07:46;15.78;55.49
69503;SHT31;56704;54.242;12.442;2024-02-21T13:10:14;16.20;62.62
69503;SHT31;56704;54.242;12.442;2024-02-21T13:12:40;16.23;58.86
69503;SHT31;56704;54.242;12.442;2024-02-21T13:15:08;16.77;60.14
69503;SHT31;56704;54.242;12.442;2024-02-21T13:17:38;16.14;56.42
69503;SHT31;56704;54.242;12.442;2024-02-21T13:20:05;15.37;56.87
69503;SHT31;56704;54.242;12.442;2024-02-21T13:22:33;15.21;58.87
69503;SHT31;56704;54.242;12.442;2024-02-21T13:25:00;14.57;60.74
69503;SHT31;56704;54.242;12.442;2024-02-21T13:27:26;14.12;61.13
69503;SHT31;56704;54.242;12.442;2024-02-21T13:29:53;13.57;64.63
69503;SHT31;56704;54.242;12.442;2024-02-21T13:32:19;13.65;65.26
69503;SHT31;56704;54.242;12.442;2024-02-21T13:34:47;13.48;65.60
69503;SHT31;56704;54.242;12.442;2024-02-21T13:37:15;13.85;66.59
69503;SHT31;56704;54.242;12.442;2024-02-21T13:39:42;14.11;64.94
69503;SHT31;56704;54.242;12.442;2024-02-21T13:42:08;13.75;63.86
69503;SHT31;56704;54.242;12.442;2024-02-21T13:44:35;13.17;65.41
69503;SHT31;56704;54.242;12.442;2024-02-21T13:47:02;12.76;67.63
69503;SHT31;56704;54.242;12.442;2024-02-21T13:49:30;12.01;67.98
69503;SHT31;56704;54.242;12.442;2024-02-21T13:51:58;11.90;70.12
69503;SHT31;56704;54.242;12.442;2024-02-21T13:54:25;11.71;69.79
69503;SHT31;56704;54.242;12.442;2024-02-21T13:56:52;11.87;69.69
69503;SHT31;56704;54.242;12.442;2024-02-21T13:59:17;11.98;68.86
69503;SHT31;56704;54.242;12.442;2024-02-21T14:01:44;11.74;69.02
69503;SHT31;56704;54.242;12.442;2024-02-21T14:04:10;11.97;71.26
69503;SHT31;56704;54.242;12.442;2024-02-21T14:06:37;12.17;69.73
69503;SHT31;56704;54.242;12.442;2024-02-21T14:09:09;12.00;70.59
69503;SHT31;56704;54.242;12.442;2024-02-21T14:11:36;11.79;71.41
69503;SHT31;56704;54.242;12.442;2024-02-21T14:14:03;11.66;71.63
69503;SHT31;56704;54.242;12.442;2024-02-21T14:16:30;11.46;71.71
69503;SHT31;56704;54.242;12.442;2024-02-21T14:18:56;11.42;71.98
69503;SHT31;56704;54.242;12.442;2024-02-21T14:21:23;11.50;73.86
69503;SHT31;56704;54.242;12.442;2024-02-21T14:23:50;11.42;73.04
69503;SHT31;56704;54.242;12.442;2024-02-21T14:26:19;11.28;72.82
69503;SHT31;56704;54.242;12.442;2024-02-21T14:28:47;11.19;74.97
69503;SHT31;56704;54.242;12.442;2024-02-21T14:31:13;11.35;75.60
69503;SHT31;56704;54.242;12.442;2024-02-21T14:33:40;11.52;76.32
69503;SHT31;56704;54.242;12.442;2024-02-21T14:36:07;11.69;75.98
69503;SHT31;56704;54.242;12.442;2024-02-21T14:38:33;11.70;75.83
69503;SHT31;56704;54.242;12.442;2024-02-21T14:41:01;11.57;72.93
69503;SHT31;56704;54.242;12.442;2024-02-21T14:43:29;11.36;73.28
69503;SHT31;56704;54.242;12.442;2024-02-21T14:45:55;11.20;74.26
69503;SHT31;56704;54.242;12.442;2024-02-21T14:48:22;11.26;75.11
69503;SHT31;56704;54.242;12.442;2024-02-21T14:50:49;11.30;75.16
69503;SHT31;56704;54.242;12.442;2024-02-21T14:53:15;11.35;75.07
69503;SHT31;56704;54.242;12.442;2024-02-21T14:55:43;11.22;74.93
69503;SHT31;56704;54.242;12.442;2024-02-21T14:58:10;11.14;74.53
69503;SHT31;56704;54.242;12.442;2024-02-21T15:00:38;11.05;74.96
69503;SHT31;56704;54.242;12.442;2024-02-21T15:03:04;11.06;75.79
69503;SHT31;56704;54.242;12.442;2024-02-21T15:05:31;11.12;76.85
69503;SHT31;56704;54.242;12.442;2024-02-21T15:07:59;11.04;76.31
69503;SHT31;56704;54.242;12.442;2024-02-21T15:10:25;10.96;75.98
69503;SHT31;56704;54.242;12.442;2024-02-21T15:12:52;10.87;76.62
69503;SHT31;56704;54.242;12.442;2024-02-21T15:15:19;10.81;76.58
69503;SHT31;56704;54.242;12.442;2024-02-21T15:17:47;10.72;77.49
69503;SHT31;56704;54.242;12.442;2024-02-21T15:20:14;10.71;77.65
69503;SHT31;56704;54.242;12.442;2024-02-21T15:22:41;10.60;77.53
69503;SHT31;56704;54.242;12.442;2024-02-21T15:25:08;10.53;77.91
69503;SHT31;56704;54.242;12.442;2024-02-21T15:27:40;10.44;78.24
69503;SHT31;56704;54.242;12.442;2024-02-21T15:30:08;10.50;78.55